Time;durP1;ratioP1;P1;durP2;ratioP2;P2;SDS_P1;SDS_P2;PMS_P1;PMS_P2;Temp;Humidity;BMP_temperature;BMP_pressure;BME280_temperature;BME280_humidity;BME280_pressure;Samples;Min_cycle;Max_cycle;Signal;HPM_P1;HPM_P2
2023/04/03 00:01:43;;;;;;;;;;;;;;;8.69;100.00;99087.00;5054483;28;1042;-50
2023/04/03 00:04:10;;;;;;;;;;;;;;;8.76;100.00;99081.41;5054451;28;878;-51
2023/04/03 00:06:36;;;;;;;;;;;;;;;8.70;100.00;99080.28;5054423;28;1942;-50
2023/04/03 00:09:03;;;;;;;;;;;;;;;8.61;100.00;99079.97;5054545;28;994;-50
2023/04/03 00:11:29;;;;;;;;;;;;;;;8.57;100.00;99080.00;5054596;28;866;-51
2023/04/03 00:13:56;;;;;;;;;;;;;;;8.64;100.00;99073.66;5054344;28;866;-50
2023/04/03 00:16:23;;;;;;;;;;;;;;;8.58;100.00;99070.56;5054182;28;889;-50
2023/04/03 00:18:49;;;;;;;;;;;;;;;8.32;100.00;99066.41;5054415;28;834;-50
2023/04/03 00:21:15;;;;;;;;;;;;;;;8.07;100.00;99063.84;5053911;28;1423;-50
2023/04/03 00:23:42;;;;;;;;;;;;;;;7.84;100.00;99055.34;5054143;28;885;-51
2023/04/03 00:26:09;;;;;;;;;;;;;;;7.78;100.00;99058.50;5053776;28;1902;-51
2023/04/03 00:28:35;;;;;;;;;;;;;;;7.91;100.00;99049.78;5054091;28;881;-50
2023/04/03 00:31:02;;;;;;;;;;;;;;;8.05;100.00;99049.69;5054011;28;802;-51
2023/04/03 00:33:29;;;;;;;;;;;;;;;8.27;100.00;99049.53;5054136;28;901;-53
2023/04/03 00:35:56;;;;;;;;;;;;;;;8.61;100.00;99052.44;5053858;28;842;-51
2023/04/03 00:38:22;;;;;;;;;;;;;;;8.64;100.00;99059.91;5053959;28;857;-50
2023/04/03 00:40:50;;;;;;;;;;;;;;;8.48;100.00;99059.63;5053817;28;893;-52
2023/04/03 00:43:26;;;;;;;;;;;;;;;8.27;100.00;99055.81;5053746;28;823;-54
2023/04/03 00:45:53;;;;;;;;;;;;;;;7.89;100.00;99052.91;5053911;28;1947;-52
2023/04/03 00:48:31;;;;;;;;;;;;;;;7.63;100.00;99048.75;5053650;28;922;-53
2023/04/03 00:50:58;;;;;;;;;;;;;;;7.62;100.00;99049.16;5053566;28;964;-51
2023/04/03 00:53:32;;;;;;;;;;;;;;;7.63;100.00;99051.50;5053499;28;890;-54
2023/04/03 00:55:59;;;;;;;;;;;;;;;7.50;100.00;99055.91;5054196;28;771;-53
2023/04/03 00:58:34;;;;;;;;;;;;;;;7.46;100.00;99063.38;5069100;28;905;-51
2023/04/03 01:01:03;;;;;;;;;;;;;;;7.43;100.00;99055.94;5053530;28;795;-51
2023/04/03 01:03:31;;;;;;;;;;;;;;;7.51;100.00;99055.50;5053424;28;814;-54
2023/04/03 01:05:57;;;;;;;;;;;;;;;7.57;100.00;99064.09;5053338;28;1953;-52
2023/04/03 01:08:24;;;;;;;;;;;;;;;7.73;100.00;99067.19;5053321;28;881;-53
2023/04/03 01:10:50;;;;;;;;;;;;;;;7.80;100.00;99076.59;5053268;28;880;-54
2023/04/03 01:13:22;;;;;;;;;;;;;;;7.81;100.00;99086.38;5053348;28;806;-54
2023/04/03 01:15:49;;;;;;;;;;;;;;;7.57;100.00;99086.91;5053186;28;814;-54
2023/04/03 01:18:15;;;;;;;;;;;;;;;7.41;100.00;99089.31;5053117;28;877;-54
2023/04/03 01:20:57;;;;;;;;;;;;;;;7.36;100.00;99092.47;5052833;28;1249;-54
2023/04/03 01:23:27;;;;;;;;;;;;;;;7.54;100.00;99084.94;5053071;28;829;-54
2023/04/03 01:25:55;;;;;;;;;;;;;;;7.54;100.00;99081.41;5052729;28;1913;-55
2023/04/03 01:28:23;;;;;;;;;;;;;;;7.54;100.00;99073.94;5052564;28;798;-52
2023/04/03 01:30:49;;;;;;;;;;;;;;;7.50;100.00;99075.91;5068254;28;936;-50
2023/04/03 01:33:16;;;;;;;;;;;;;;;7.45;100.00;99076.34;5052786;28;880;-50
2023/04/03 01:35:43;;;;;;;;;;;;;;;7.41;100.00;99078.31;5052727;28;890;-52
2023/04/03 01:38:10;;;;;;;;;;;;;;;7.29;100.00;99071.28;5052769;28;881;-53
2023/04/03 01:40:36;;;;;;;;;;;;;;;7.13;100.00;99062.72;5052664;28;1344;-50
2023/04/03 01:43:02;;;;;;;;;;;;;;;7.09;100.00;99073.72;5052679;28;897;-51
2023/04/03 01:45:29;;;;;;;;;;;;;;;7.34;100.00;99075.63;5052502;28;1885;-50
2023/04/03 01:47:56;;;;;;;;;;;;;;;7.64;100.00;99068.78;5052558;28;877;-53
2023/04/03 01:50:22;;;;;;;;;;;;;;;7.73;100.00;99072.69;5052480;28;927;-50
2023/04/03 01:52:49;;;;;;;;;;;;;;;7.59;100.00;99083.75;5052416;28;826;-52
2023/04/03 01:55:15;;;;;;;;;;;;;;;7.40;100.00;99085.00;5052216;28;953;-51
2023/04/03 01:57:42;;;;;;;;;;;;;;;7.37;100.00;99083.06;5052305;28;842;-51
2023/04/03 02:00:09;;;;;;;;;;;;;;;7.31;100.00;99084.63;5051059;28;949;-52
2023/04/03 02:02:35;;;;;;;;;;;;;;;7.23;100.00;99085.84;5052318;28;831;-50
2023/04/03 02:05:02;;;;;;;;;;;;;;;7.30;100.00;99078.38;5052160;28;1894;-50
2023/04/03 02:07:29;;;;;;;;;;;;;;;7.22;100.00;99076.81;5052127;28;842;-50
2023/04/03 02:09:55;;;;;;;;;;;;;;;7.18;100.00;99073.28;5052513;28;984;-51
2023/04/03 02:12:22;;;;;;;;;;;;;;;7.16;100.00;99073.69;5052134;28;1221;-50
2023/04/03 02:14:48;;;;;;;;;;;;;;;7.27;100.00;99075.63;5052119;28;878;-50
2023/04/03 02:17:15;;;;;;;;;;;;;;;7.39;100.00;99074.41;5052001;28;802;-54
2023/04/03 02:19:42;;;;;;;;;;;;;;;7.56;100.00;99076.31;5052112;28;822;-52
2023/04/03 02:22:08;;;;;;;;;;;;;;;7.64;100.00;99075.09;5051654;28;1410;-52
2023/04/03 02:24:35;;;;;;;;;;;;;;;7.70;100.00;99078.19;5051809;28;1918;-50
2023/04/03 02:27:02;;;;;;;;;;;;;;;7.72;100.00;99070.31;5051776;28;905;-52
2023/04/03 02:29:28;;;;;;;;;;;;;;;7.62;100.00;99066.44;5051995;28;878;-52
2023/04/03 02:31:55;;;;;;;;;;;;;;;7.47;100.00;99068.47;5051822;28;926;-52
2023/04/03 02:34:21;;;;;;;;;;;;;;;7.39;100.00;99075.19;5052106;28;850;-54
2023/04/03 02:36:48;;;;;;;;;;;;;;;7.39;100.00;99075.19;5051923;28;883;-50
2023/04/03 02:39:15;;;;;;;;;;;;;;;7.30;100.00;99074.84;5050992;28;897;-53
2023/04/03 02:41:42;;;;;;;;;;;;;;;7.14;100.00;99076.03;5051879;28;960;-51
2023/04/03 02:44:09;;;;;;;;;;;;;;;6.95;100.00;99076.47;5051874;28;878;-55
2023/04/03 02:46:36;;;;;;;;;;;;;;;6.87;100.00;99083.16;5051752;28;1874;-53
2023/04/03 02:49:03;;;;;;;;;;;;;;;6.86;100.00;99081.59;5051786;28;803;-53
2023/04/03 02:51:30;;;;;;;;;;;;;;;6.85;100.00;99097.31;5051735;28;948;-53
2023/04/03 02:53:56;;;;;;;;;;;;;;;6.75;100.00;99104.38;5051610;28;882;-51
2023/04/03 02:56:23;;;;;;;;;;;;;;;6.70;100.00;99110.28;5052025;28;850;-53
2023/04/03 02:58:48;;;;;;;;;;;;;;;6.69;100.00;99099.66;5051849;28;880;-53
2023/04/03 03:01:15;;;;;;;;;;;;;;;6.73;100.00;99103.19;5051558;28;849;-54
2023/04/03 03:03:42;;;;;;;;;;;;;;;6.78;100.00;99104.75;5066997;28;862;-54
2023/04/03 03:06:09;;;;;;;;;;;;;;;6.88;100.00;99106.72;5051389;28;1882;-50
2023/04/03 03:08:37;;;;;;;;;;;;;;;6.91;100.00;99106.72;5051657;28;963;-51
2023/04/03 03:11:04;;;;;;;;;;;;;;;6.97;100.00;99103.56;5051398;28;822;-52
2023/04/03 03:13:30;;;;;;;;;;;;;;;7.03;100.00;99104.75;5051270;28;928;-50
2023/04/03 03:15:57;;;;;;;;;;;;;;;7.08;100.00;99096.88;5051244;28;1012;-49
2023/04/03 03:18:24;;;;;;;;;;;;;;;7.26;100.00;99098.81;5051262;28;900;-49
2023/04/03 03:20:55;;;;;;;;;;;;;;;7.40;100.00;99104.22;5051004;28;1257;-51
2023/04/03 03:23:22;;;;;;;;;;;;;;;7.42;100.00;99101.09;5051410;28;858;-52
2023/04/03 03:25:48;;;;;;;;;;;;;;;7.39;100.00;99097.19;5051384;28;1905;-50
2023/04/03 03:28:17;;;;;;;;;;;;;;;7.42;100.00;99096.38;5051450;28;818;-51
2023/04/03 03:30:44;;;;;;;;;;;;;;;7.41;100.00;99100.31;5051176;28;815;-50
2023/04/03 03:33:11;;;;;;;;;;;;;;;7.36;100.00;99104.25;5051173;28;904;-52
2023/04/03 03:35:37;;;;;;;;;;;;;;;7.36;100.00;99106.22;5051411;28;854;-50
2023/04/03 03:38:04;;;;;;;;;;;;;;;7.37;100.00;99105.03;5051161;28;882;-51
2023/04/03 03:40:31;;;;;;;;;;;;;;;7.35;100.00;99102.69;5051433;28;810;-50
2023/04/03 03:42:57;;;;;;;;;;;;;;;7.33;100.00;99102.28;5051477;28;901;-50
2023/04/03 03:45:24;;;;;;;;;;;;;;;7.28;100.00;99110.19;5051123;28;1878;-51
2023/04/03 03:47:50;;;;;;;;;;;;;;;7.22;100.00;99120.00;5051239;28;910;-51
2023/04/03 03:50:17;;;;;;;;;;;;;;;7.14;100.00;99117.25;5051665;28;866;-53
2023/04/03 03:52:44;;;;;;;;;;;;;;;7.03;100.00;99113.75;5055172;28;767;-50
2023/04/03 03:55:11;;;;;;;;;;;;;;;6.94;100.00;99110.66;5054709;28;806;-51
2023/04/03 03:57:37;;;;;;;;;;;;;;;6.79;100.00;99111.84;5055434;28;783;-51
2023/04/03 04:00:04;;;;;;;;;;;;;;;6.68;100.00;99112.63;5054589;28;885;-53
2023/04/03 04:02:30;;;;;;;;;;;;;;;6.54;100.00;99110.66;5054490;28;1270;-51
2023/04/03 04:04:56;;;;;;;;;;;;;;;6.38;100.00;99117.69;5054462;28;1882;-53
2023/04/03 04:07:24;;;;;;;;;;;;;;;6.30;100.00;99105.94;5054366;28;917;-51
2023/04/03 04:09:50;;;;;;;;;;;;;;;6.25;100.00;99111.81;5054735;28;928;-54
2023/04/03 04:12:17;;;;;;;;;;;;;;;6.20;100.00;99106.72;5054471;28;874;-55
2023/04/03 04:14:46;;;;;;;;;;;;;;;6.25;100.00;99111.81;5054301;28;850;-50
2023/04/03 04:17:13;;;;;;;;;;;;;;;6.32;100.00;99109.09;5054210;28;906;-51
2023/04/03 04:19:40;;;;;;;;;;;;;;;6.55;100.00;99103.22;5054236;28;830;-51
2023/04/03 04:22:06;;;;;;;;;;;;;;;6.82;100.00;99111.03;5053820;28;1401;-53
2023/04/03 04:24:33;;;;;;;;;;;;;;;7.03;100.00;99112.97;5069470;28;1906;-52
2023/04/03 04:27:00;;;;;;;;;;;;;;;7.15;100.00;99102.34;5054145;28;1075;-53
2023/04/03 04:29:26;;;;;;;;;;;;;;;7.37;100.00;99110.53;5054066;28;826;-53
2023/04/03 04:31:53;;;;;;;;;;;;;;;7.61;100.00;99111.63;5054049;28;858;-53
2023/04/03 04:34:20;;;;;;;;;;;;;;;7.79;100.00;99108.81;5053976;28;949;-54
2023/04/03 04:36:46;;;;;;;;;;;;;;;7.90;100.00;99108.75;5053901;28;823;-54
2023/04/03 04:39:13;;;;;;;;;;;;;;;7.93;100.00;99103.22;5053902;28;806;-54
2023/04/03 04:41:40;;;;;;;;;;;;;;;7.93;100.00;99110.69;5053810;28;1021;-55
2023/04/03 04:44:07;;;;;;;;;;;;;;;7.86;100.00;99103.25;5053797;28;901;-53
2023/04/03 04:46:34;;;;;;;;;;;;;;;7.89;100.00;99101.69;5053583;28;1957;-49
2023/04/03 04:49:00;;;;;;;;;;;;;;;8.00;100.00;99101.63;5053712;28;933;-49
2023/04/03 04:51:26;;;;;;;;;;;;;;;8.12;100.00;99109.41;5053548;28;810;-48
2023/04/03 04:53:53;;;;;;;;;;;;;;;8.27;100.00;99110.09;5053656;28;841;-48
2023/04/03 04:56:20;;;;;;;;;;;;;;;8.34;100.00;99107.28;5053616;28;980;-51
2023/04/03 04:58:47;;;;;;;;;;;;;;;8.35;100.00;99117.91;5052207;28;1539;-49
2023/04/03 05:01:13;;;;;;;;;;;;;;;8.34;100.00;99116.34;5053451;28;825;-53
2023/04/03 05:03:40;;;;;;;;;;;;;;;8.34;100.00;99115.56;5052796;28;810;-49
2023/04/03 05:06:07;;;;;;;;;;;;;;;8.38;100.00;99116.31;5053630;28;1961;-49
2023/04/03 05:08:34;;;;;;;;;;;;;;;8.46;100.00;99123.38;5053353;28;905;-49
2023/04/03 05:11:00;;;;;;;;;;;;;;;8.65;100.00;99126.78;5053354;28;830;-49
2023/04/03 05:13:27;;;;;;;;;;;;;;;8.70;100.00;99137.34;5053170;28;818;-51
2023/04/03 05:15:53;;;;;;;;;;;;;;;8.59;100.00;99152.00;5053211;28;889;-51
2023/04/03 05:18:20;;;;;;;;;;;;;;;8.55;100.00;99144.94;5053184;28;839;-49
2023/04/03 05:20:48;;;;;;;;;;;;;;;8.43;100.00;99150.94;5052780;28;1468;-51
2023/04/03 05:23:15;;;;;;;;;;;;;;;8.33;100.00;99153.31;5052908;28;913;-48
2023/04/03 05:25:43;;;;;;;;;;;;;;;8.33;100.00;99158.06;5053089;28;1917;-50
2023/04/03 05:28:10;;;;;;;;;;;;;;;8.41;100.00;99161.56;5053170;28;881;-53
2023/04/03 05:30:38;;;;;;;;;;;;;;;8.50;100.00;99168.19;5053131;28;799;-50
2023/04/03 05:33:05;;;;;;;;;;;;;;;8.66;100.00;99175.16;5052784;28;885;-49
2023/04/03 05:35:32;;;;;;;;;;;;;;;8.98;100.00;99181.22;5052686;28;866;-50
2023/04/03 05:37:58;;;;;;;;;;;;;;;9.31;100.00;99187.22;5052776;28;818;-52
2023/04/03 05:40:26;;;;;;;;;;;;;;;9.77;100.00;99201.72;5052609;28;917;-49
2023/04/03 05:42:53;;;;;;;;;;;;;;;10.10;100.00;99204.91;5052648;28;894;-52
2023/04/03 05:45:19;;;;;;;;;;;;;;;10.43;100.00;99203.28;5052483;28;1949;-48
2023/04/03 05:47:47;;;;;;;;;;;;;;;10.65;100.00;99206.56;5052499;28;906;-52
2023/04/03 05:50:13;;;;;;;;;;;;;;;10.81;100.00;99201.16;5052332;28;941;-51
2023/04/03 05:52:43;;;;;;;;;;;;;;;11.21;100.00;99209.59;5052502;28;822;-53
2023/04/03 05:55:09;;;;;;;;;;;;;;;11.64;100.00;99208.81;5052578;28;850;-52
2023/04/03 05:57:36;;;;;;;;;;;;;;;12.15;100.00;99221.75;5052403;28;806;-53
2023/04/03 06:00:05;;;;;;;;;;;;;;;12.93;100.00;99218.41;5050995;28;1289;-51
2023/04/03 06:02:31;;;;;;;;;;;;;;;14.13;96.44;99217.72;5052258;28;819;-50
2023/04/03 06:04:58;;;;;;;;;;;;;;;14.94;89.74;99218.50;5052140;28;1949;-49
2023/04/03 06:07:28;;;;;;;;;;;;;;;15.46;84.48;99215.13;5052194;28;818;-49
2023/04/03 06:09:55;;;;;;;;;;;;;;;15.97;81.85;99205.81;5052439;28;1007;-49
2023/04/03 06:12:22;;;;;;;;;;;;;;;16.37;79.75;99207.94;5052465;28;889;-49
2023/04/03 06:14:49;;;;;;;;;;;;;;;16.21;79.14;99216.50;5051931;28;865;-49
2023/04/03 06:17:17;;;;;;;;;;;;;;;15.71;79.33;99214.31;5052025;28;957;-51
2023/04/03 06:19:44;;;;;;;;;;;;;;;15.44;81.02;99214.03;5067116;28;843;-50
2023/04/03 06:22:11;;;;;;;;;;;;;;;15.40;79.94;99205.03;5051998;28;1548;-50
2023/04/03 06:24:38;;;;;;;;;;;;;;;15.46;79.24;99204.00;5052458;28;1977;-51
2023/04/03 06:27:04;;;;;;;;;;;;;;;15.44;77.91;99202.91;5052537;28;866;-52
2023/04/03 06:29:31;;;;;;;;;;;;;;;15.74;76.93;99209.06;5051788;28;890;-48
2023/04/03 06:31:56;;;;;;;;;;;;;;;15.81;76.49;99204.03;5051836;28;893;-50
2023/04/03 06:34:23;;;;;;;;;;;;;;;15.93;75.22;99210.75;5051763;28;845;-48
2023/04/03 06:36:50;;;;;;;;;;;;;;;15.89;74.35;99207.31;5051771;28;925;-49
2023/04/03 06:39:22;;;;;;;;;;;;;;;15.74;74.64;99206.28;5051668;28;811;-49
2023/04/03 06:41:49;;;;;;;;;;;;;;;15.91;75.77;99211.19;5051916;28;822;-47
2023/04/03 06:44:15;;;;;;;;;;;;;;;16.03;75.12;99212.38;5051930;28;818;-50
2023/04/03 06:46:42;;;;;;;;;;;;;;;16.36;75.19;99205.59;5051781;28;1886;-48
2023/04/03 06:49:10;;;;;;;;;;;;;;;16.64;73.69;99215.69;5051759;28;795;-48
2023/04/03 06:51:40;;;;;;;;;;;;;;;16.93;72.01;99215.31;5051794;28;894;-48
2023/04/03 06:54:09;;;;;;;;;;;;;;;17.34;70.27;99213.25;5050112;28;2103;-49
2023/04/03 06:56:36;;;;;;;;;;;;;;;17.86;66.36;99216.28;5051505;28;854;-49
2023/04/03 06:59:03;;;;;;;;;;;;;;;17.89;65.33;99212.53;5051468;28;837;-52
2023/04/03 07:01:30;;;;;;;;;;;;;;;17.99;64.79;99202.13;5051383;28;924;-49
2023/04/03 07:03:58;;;;;;;;;;;;;;;18.41;63.00;99212.59;5066807;28;891;-49
2023/04/03 07:06:26;;;;;;;;;;;;;;;18.48;60.93;99219.91;5051366;28;1983;-51
2023/04/03 07:08:54;;;;;;;;;;;;;;;18.17;60.42;99226.47;5051383;28;904;-49
2023/04/03 07:11:20;;;;;;;;;;;;;;;17.95;59.22;99235.06;5050060;28;1357;-51
2023/04/03 07:13:47;;;;;;;;;;;;;;;17.83;55.53;99235.97;5051364;28;798;-51
2023/04/03 07:16:13;;;;;;;;;;;;;;;17.62;56.83;99238.41;5051504;28;1063;-51
2023/04/03 07:18:41;;;;;;;;;;;;;;;17.47;56.01;99235.47;5051506;28;886;-50
2023/04/03 07:21:07;;;;;;;;;;;;;;;17.15;55.33;99239.59;5050931;28;1604;-53
2023/04/03 07:23:34;;;;;;;;;;;;;;;17.60;55.55;99232.53;5051286;28;807;-50
2023/04/03 07:26:01;;;;;;;;;;;;;;;17.43;55.05;99229.28;5052984;28;1983;-53
2023/04/03 07:28:27;;;;;;;;;;;;;;;16.89;56.22;99231.44;5055347;28;861;-51
2023/04/03 07:31:01;;;;;;;;;;;;;;;16.77;57.66;99234.31;5055114;28;831;-51
2023/04/03 07:33:28;;;;;;;;;;;;;;;16.93;57.29;99242.47;5055125;28;838;-51
2023/04/03 07:35:54;;;;;;;;;;;;;;;17.37;57.00;99235.91;5055063;28;866;-51
2023/04/03 07:38:21;;;;;;;;;;;;;;;17.91;54.55;99231.63;5070417;28;1274;-53
2023/04/03 07:40:48;;;;;;;;;;;;;;;18.07;54.81;99244.50;5054925;28;926;-51
2023/04/03 07:43:16;;;;;;;;;;;;;;;18.51;52.24;99249.72;5054851;28;952;-49
2023/04/03 07:45:43;;;;;;;;;;;;;;;19.01;51.23;99241.81;5054768;28;1894;-53
2023/04/03 07:48:10;;;;;;;;;;;;;;;19.50;50.58;99257.41;5053421;28;809;-52
2023/04/03 07:50:39;;;;;;;;;;;;;;;20.08;49.29;99255.25;5054809;28;843;-55
2023/04/03 07:53:06;;;;;;;;;;;;;;;20.31;49.11;99250.03;5054913;28;949;-55
2023/04/03 07:55:32;;;;;;;;;;;;;;;19.82;47.07;99240.19;5054701;28;906;-54
2023/04/03 07:57:59;;;;;;;;;;;;;;;19.24;48.64;99254.25;5054644;28;901;-54
2023/04/03 08:00:26;;;;;;;;;;;;;;;18.76;49.74;99254.94;5054642;28;846;-55
2023/04/03 08:02:52;;;;;;;;;;;;;;;18.48;50.38;99251.44;5054540;28;866;-54
2023/04/03 08:05:18;;;;;;;;;;;;;;;18.35;51.88;99251.63;5054562;28;1940;-55
2023/04/03 08:07:45;;;;;;;;;;;;;;;17.82;51.77;99259.56;5054483;28;850;-55
2023/04/03 08:10:11;;;;;;;;;;;;;;;17.80;52.61;99267.66;5054364;28;1020;-53
2023/04/03 08:12:38;;;;;;;;;;;;;;;17.99;51.84;99266.44;5054335;28;1062;-54
2023/04/03 08:15:05;;;;;;;;;;;;;;;18.12;52.17;99267.03;5054338;28;885;-54
2023/04/03 08:17:34;;;;;;;;;;;;;;;18.51;51.23;99263.72;5054139;28;878;-54
2023/04/03 08:20:02;;;;;;;;;;;;;;;18.94;51.04;99259.69;5054271;28;842;-53
2023/04/03 08:22:29;;;;;;;;;;;;;;;19.27;49.93;99256.13;5053965;28;1249;-54
2023/04/03 08:24:56;;;;;;;;;;;;;;;19.11;50.15;99262.88;5054144;28;1914;-53
2023/04/03 08:27:22;;;;;;;;;;;;;;;19.07;50.14;99258.72;5054087;28;901;-55
2023/04/03 08:29:49;;;;;;;;;;;;;;;19.16;48.81;99258.66;5054115;28;882;-55
2023/04/03 08:32:15;;;;;;;;;;;;;;;19.30;48.16;99255.16;5054084;28;803;-55
2023/04/03 08:34:42;;;;;;;;;;;;;;;19.68;48.25;99264.13;5054192;28;929;-53
2023/04/03 08:37:08;;;;;;;;;;;;;;;19.53;48.30;99264.06;5052580;28;930;-54
2023/04/03 08:39:35;;;;;;;;;;;;;;;19.14;48.51;99264.00;5053920;28;818;-52
2023/04/03 08:42:07;;;;;;;;;;;;;;;19.26;48.49;99253.78;5053863;28;885;-54
2023/04/03 08:44:47;;;;;;;;;;;;;;;19.72;47.58;99251.50;5053778;28;849;-55
2023/04/03 08:47:34;;;;;;;;;;;;;;;19.87;47.32;99251.53;5053716;28;826;-54
2023/04/03 08:50:04;;;;;;;;;;;;;;;20.41;47.24;99240.28;5053745;28;1237;-54
2023/04/03 08:52:33;;;;;;;;;;;;;;;21.67;46.31;99247.28;5053612;28;936;-53
2023/04/03 08:55:12;;;;;;;;;;;;;;;22.71;42.45;99235.31;5053561;28;894;-54
2023/04/03 08:57:44;;;;;;;;;;;;;;;21.82;40.33;99233.91;5053522;28;1034;-54
2023/04/03 09:00:22;;;;;;;;;;;;;;;20.60;42.62;99233.22;5053506;28;961;-55
2023/04/03 09:02:53;;;;;;;;;;;;;;;20.29;43.21;99233.72;5053377;28;897;-56
2023/04/03 09:05:32;;;;;;;;;;;;;;;20.22;43.04;99236.88;5053449;28;1949;-55
2023/04/03 09:08:05;;;;;;;;;;;;;;;19.78;43.65;99238.38;5053289;28;944;-56
2023/04/03 09:10:33;;;;;;;;;;;;;;;19.96;44.00;99222.63;5053957;28;814;-55
2023/04/03 09:13:05;;;;;;;;;;;;;;;19.86;43.90;99230.34;5054104;28;830;-55
2023/04/03 09:15:31;;;;;;;;;;;;;;;19.95;43.10;99224.69;5053153;28;861;-55
2023/04/03 09:18:05;;;;;;;;;;;;;;;20.03;42.14;99219.44;5053163;28;1211;-56
2023/04/03 09:20:39;;;;;;;;;;;;;;;20.07;42.14;99219.25;5052717;28;1206;-56
2023/04/03 09:23:24;;;;;;;;;;;;;;;20.22;42.27;99219.28;5051837;28;889;-56
2023/04/03 09:25:54;;;;;;;;;;;;;;;20.27;41.46;99210.97;5052870;28;1963;-56
2023/04/03 09:28:20;;;;;;;;;;;;;;;20.49;41.01;99218.97;5052880;28;928;-56
2023/04/03 09:30:47;;;;;;;;;;;;;;;20.51;40.98;99212.91;5052950;28;853;-55
2023/04/03 09:33:14;;;;;;;;;;;;;;;20.55;41.60;99211.44;5052889;28;838;-55
2023/04/03 09:35:41;;;;;;;;;;;;;;;20.57;41.94;99211.75;5052951;28;889;-56
2023/04/03 09:38:10;;;;;;;;;;;;;;;20.67;41.42;99208.81;5052769;28;893;-56
2023/04/03 19:23:32;;;;;;;;;;;;;;;9.66;100.00;99033.53;5032451;28;1196;-60
2023/04/03 19:26:03;;;;;;;;;;;;;;;9.58;100.00;99018.25;5055236;28;1975;-59
2023/04/03 19:28:30;;;;;;;;;;;;;;;9.65;100.00;99017.41;5055383;28;806;-59
2023/04/03 19:30:57;;;;;;;;;;;;;;;9.73;100.00;99018.84;5055179;28;900;-59
2023/04/03 19:33:23;;;;;;;;;;;;;;;9.73;100.00;99024.38;5055227;28;850;-59
2023/04/03 19:35:50;;;;;;;;;;;;;;;9.69;100.00;99012.63;5055172;28;869;-60
2023/04/03 19:38:17;;;;;;;;;;;;;;;9.72;100.00;99011.78;5055138;28;861;-59
2023/04/03 19:40:44;;;;;;;;;;;;;;;9.78;100.00;99007.34;5055109;28;798;-59
2023/04/03 19:43:11;;;;;;;;;;;;;;;9.79;100.00;98986.81;5055062;28;803;-59
2023/04/03 19:45:38;;;;;;;;;;;;;;;9.77;100.00;98995.53;5053626;28;1897;-58
2023/04/03 19:48:05;;;;;;;;;;;;;;;9.79;100.00;99009.72;5054960;28;838;-59
2023/04/03 19:50:32;;;;;;;;;;;;;;;9.82;100.00;98995.06;5054864;28;892;-59
2023/04/03 19:53:00;;;;;;;;;;;;;;;9.81;100.00;99004.56;5054847;28;799;-59
2023/04/03 19:55:30;;;;;;;;;;;;;;;9.79;100.00;99001.44;5053542;28;1163;-59
2023/04/03 19:58:00;;;;;;;;;;;;;;;9.77;100.00;99003.03;5053434;28;1226;-59
2023/04/03 20:00:27;;;;;;;;;;;;;;;9.82;100.00;98994.28;5054663;28;850;-59
2023/04/03 20:02:54;;;;;;;;;;;;;;;9.86;100.00;99006.06;5054671;28;846;-59
2023/04/03 20:05:21;;;;;;;;;;;;;;;9.95;100.00;99000.00;5054555;28;1897;-60
2023/04/03 20:07:47;;;;;;;;;;;;;;;10.00;100.00;98982.97;5054570;28;838;-59
2023/04/03 20:10:15;;;;;;;;;;;;;;;10.09;100.00;98990.72;5055000;28;982;-59
2023/04/03 20:12:41;;;;;;;;;;;;;;;10.17;100.00;98992.94;5054420;28;849;-59
2023/04/03 20:15:09;;;;;;;;;;;;;;;10.20;100.00;98992.13;5054421;28;861;-59
2023/04/03 20:17:35;;;;;;;;;;;;;;;10.25;100.00;98992.84;5054338;28;861;-59
2023/04/03 20:20:02;;;;;;;;;;;;;;;10.28;100.00;98995.53;5054328;28;865;-60
2023/04/03 20:22:30;;;;;;;;;;;;;;;10.25;100.00;98993.63;5054601;28;826;-59
2023/04/03 20:24:56;;;;;;;;;;;;;;;10.24;100.00;98986.50;5053899;28;1203;-59
2023/04/03 20:27:23;;;;;;;;;;;;;;;10.21;100.00;98998.41;5054088;28;1993;-58
2023/04/03 20:29:50;;;;;;;;;;;;;;;10.21;100.00;99003.94;5054062;28;880;-59
2023/04/03 20:32:17;;;;;;;;;;;;;;;10.15;100.00;99013.91;5053882;28;802;-59
2023/04/03 20:34:43;;;;;;;;;;;;;;;10.09;100.00;99004.53;5054143;28;869;-59
2023/04/03 20:37:10;;;;;;;;;;;;;;;9.95;100.00;99000.00;5053999;28;795;-59
2023/04/03 20:39:36;;;;;;;;;;;;;;;9.86;100.00;98999.72;5054000;28;839;-58
2023/04/03 20:42:03;;;;;;;;;;;;;;;9.84;100.00;98993.88;5053952;28;822;-59
2023/04/03 20:44:30;;;;;;;;;;;;;;;9.84;100.00;99000.19;5053838;28;870;-59
2023/04/03 20:46:57;;;;;;;;;;;;;;;9.79;100.00;98989.59;5053753;28;1886;-58
2023/04/03 20:49:23;;;;;;;;;;;;;;;9.74;100.00;98982.56;5053812;28;803;-59
2023/04/03 20:51:51;;;;;;;;;;;;;;;9.69;100.00;98968.47;5053776;28;811;-59
2023/04/03 20:54:18;;;;;;;;;;;;;;;9.64;100.00;98964.19;5052353;28;1215;-59
2023/04/03 20:56:47;;;;;;;;;;;;;;;9.63;100.00;98986.69;5053645;28;865;-59
2023/04/03 20:59:14;;;;;;;;;;;;;;;9.61;100.00;98974.06;5053480;28;901;-59
2023/04/03 21:01:41;;;;;;;;;;;;;;;9.67;100.00;98982.69;5053577;28;914;-58
2023/04/03 21:04:11;;;;;;;;;;;;;;;9.65;100.00;98974.03;5053531;28;795;-59
2023/04/03 21:06:57;;;;;;;;;;;;;;;9.61;100.00;98982.34;5053475;28;1882;-59
2023/04/03 21:09:43;;;;;;;;;;;;;;;9.55;100.00;98980.47;5068947;28;1446;-58
2023/04/03 21:12:28;;;;;;;;;;;;;;;9.53;100.00;98980.09;5053347;28;841;-59
2023/04/03 21:15:14;;;;;;;;;;;;;;;9.51;100.00;98988.03;5053332;28;842;-59
2023/04/03 21:17:56;;;;;;;;;;;;;;;9.45;100.00;98987.69;5053452;28;795;-59
2023/04/03 21:20:23;;;;;;;;;;;;;;;9.45;100.00;98992.44;5054169;28;810;-58
2023/04/03 21:22:50;;;;;;;;;;;;;;;9.45;100.00;98981.41;5053639;28;830;-58
2023/04/03 21:25:17;;;;;;;;;;;;;;;9.42;100.00;98980.25;5053157;28;1969;-59
2023/04/03 21:27:43;;;;;;;;;;;;;;;9.43;100.00;98972.75;5052987;28;1214;-58
2023/04/03 21:30:10;;;;;;;;;;;;;;;9.45;100.00;98984.94;5053017;28;861;-59
2023/04/03 21:32:37;;;;;;;;;;;;;;;9.44;100.00;98985.38;5052965;28;806;-59
2023/04/03 21:35:06;;;;;;;;;;;;;;;9.44;100.00;98975.09;5052983;28;802;-58
2023/04/03 21:37:33;;;;;;;;;;;;;;;9.49;100.00;98984.91;5053362;28;861;-59
2023/04/03 21:40:00;;;;;;;;;;;;;;;9.48;100.00;98975.84;5053193;28;866;-59
2023/04/03 21:42:26;;;;;;;;;;;;;;;9.53;100.00;98967.09;5052963;28;771;-59
2023/04/03 21:44:53;;;;;;;;;;;;;;;9.59;100.00;98979.22;5052662;28;806;-59
2023/04/03 21:47:20;;;;;;;;;;;;;;;9.64;100.00;98974.44;5052710;28;1963;-59
2023/04/03 21:49:47;;;;;;;;;;;;;;;9.64;100.00;98985.47;5053353;28;755;-59
2023/04/03 21:52:14;;;;;;;;;;;;;;;9.61;100.00;98979.59;5052905;28;870;-58
2023/04/03 21:54:41;;;;;;;;;;;;;;;9.61;100.00;98971.31;5052573;28;799;-58
2023/04/03 21:57:10;;;;;;;;;;;;;;;9.58;100.00;98974.13;5052534;28;865;-59
2023/04/03 21:59:37;;;;;;;;;;;;;;;9.59;100.00;98964.66;5052680;28;790;-59
2023/04/03 22:02:03;;;;;;;;;;;;;;;9.58;100.00;98958.38;5052913;28;901;-59
2023/04/03 22:04:30;;;;;;;;;;;;;;;9.53;100.00;98936.75;5052572;28;865;-59
2023/04/03 22:06:57;;;;;;;;;;;;;;;9.49;100.00;98932.47;5052640;28;1890;-58
2023/04/03 22:09:23;;;;;;;;;;;;;;;9.41;100.00;98937.34;5053120;28;996;-59
2023/04/03 22:11:50;;;;;;;;;;;;;;;9.37;100.00;98912.56;5053043;28;830;-58
2023/04/03 22:14:16;;;;;;;;;;;;;;;9.36;100.00;98926.75;5052853;28;747;-58
2023/04/03 22:16:46;;;;;;;;;;;;;;;9.36;100.00;98935.03;5050901;28;861;-58
2023/04/03 22:19:14;;;;;;;;;;;;;;;9.34;100.00;98940.94;5052286;28;881;-58
2023/04/03 22:21:42;;;;;;;;;;;;;;;9.29;100.00;98924.88;5052121;28;791;-59
2023/04/03 22:24:09;;;;;;;;;;;;;;;9.27;100.00;98937.53;5051831;28;1223;-58
2023/04/03 22:26:35;;;;;;;;;;;;;;;9.20;100.00;98922.63;5052001;28;1967;-59
2023/04/03 22:29:02;;;;;;;;;;;;;;;9.21;100.00;98917.91;5051966;28;850;-58
2023/04/03 22:31:29;;;;;;;;;;;;;;;9.14;100.00;98923.53;5051927;28;869;-58
2023/04/03 22:33:55;;;;;;;;;;;;;;;9.11;100.00;98927.09;5051885;28;847;-59
2023/04/03 22:36:21;;;;;;;;;;;;;;;9.04;100.00;98919.69;5052016;28;815;-58
2023/04/03 22:38:48;;;;;;;;;;;;;;;9.02;100.00;98915.78;5052031;28;827;-58
2023/04/03 22:41:17;;;;;;;;;;;;;;;8.96;100.00;98904.44;5052260;28;795;-59
2023/04/03 22:43:44;;;;;;;;;;;;;;;8.95;100.00;98900.13;5051743;28;892;-59
2023/04/03 22:46:10;;;;;;;;;;;;;;;8.90;100.00;98884.06;5051727;28;1941;-58
2023/04/03 22:48:39;;;;;;;;;;;;;;;8.86;100.00;98906.16;5051920;28;832;-59
2023/04/03 22:51:06;;;;;;;;;;;;;;;8.86;100.00;98886.09;5051610;28;799;-58